Time;durP1;ratioP1;P1;durP2;ratioP2;P2;SDS_P1;SDS_P2;PMS_P1;PMS_P2;Temp;Humidity;BMP_temperature;BMP_pressure;BME280_temperature;BME280_humidity;BME280_pressure;Samples;Min_cycle;Max_cycle;Signal;HPM_P1;HPM_P2
2022/10/13 00:01:15;;;;;;;6.28;4.35;;;;;;;6.71;100.00;101057.50;6044132;29;20045;-88
2022/10/13 00:04:17;;;;;;;8.23;4.60;;;;;;;6.74;100.00;101050.44;6042582;29;20124;-88
2022/10/13 00:07:19;;;;;;;9.43;5.38;;;;;;;6.82;100.00;101050.03;6038710;29;20339;-88
2022/10/13 00:10:21;;;;;;;7.85;4.50;;;;;;;6.85;100.00;101039.56;6035318;29;20043;-88
2022/10/13 00:13:27;;;;;;;9.95;4.72;;;;;;;6.94;100.00;101035.66;6040926;29;20504;-88
2022/10/13 00:16:30;;;;;;;10.35;5.10;;;;;;;7.06;100.00;101038.38;6044245;29;20180;-88
2022/10/13 00:19:32;;;;;;;7.20;5.10;;;;;;;7.16;100.00;101043.03;6030859;29;20045;-88
2022/10/13 00:22:34;;;;;;;8.57;4.32;;;;;;;7.22;100.00;101043.47;6036350;29;20514;-88
2022/10/13 00:25:44;;;;;;;9.82;5.22;;;;;;;7.28;100.00;101057.78;6027903;29;20470;-88
2022/10/13 00:28:45;;;;;;;7.88;5.03;;;;;;;7.32;100.00;101051.50;6039538;29;20042;-88
2022/10/13 00:31:53;;;;;;;9.98;5.20;;;;;;;7.35;100.00;101051.34;6036342;29;20602;-88
2022/10/13 00:34:56;;;;;;;8.45;4.97;;;;;;;7.39;100.00;101044.28;6033978;29;20136;-88
2022/10/13 00:37:58;;;;;;;10.43;4.80;;;;;;;7.43;100.00;101046.59;6036377;29;20415;-88
2022/10/13 00:41:05;;;;;;;14.73;5.32;;;;;;;7.46;100.00;101043.84;6041606;29;20072;-88
2022/10/13 00:44:44;;;;;;;7.10;4.75;;;;;;;7.49;100.00;101040.25;6044155;29;20064;-88
2022/10/13 00:47:52;;;;;;;7.63;4.93;;;;;;;7.51;100.00;101049.56;6045449;29;20176;-88
2022/10/13 00:50:57;;;;;;;10.50;5.40;;;;;;;7.54;100.00;101039.06;6045925;29;20772;-88
2022/10/13 00:54:02;;;;;;;13.10;5.63;;;;;;;7.58;100.00;101042.31;6045134;29;20128;-88
2022/10/13 00:57:06;;;;;;;10.65;5.43;;;;;;;7.60;100.00;101044.78;6041508;29;20050;-88
2022/10/13 01:00:09;;;;;;;15.93;5.65;;;;;;;7.60;100.00;101031.91;6042183;29;20131;-88
2022/10/13 01:03:10;;;;;;;8.70;5.18;;;;;;;7.60;100.00;101045.59;6040076;29;20078;-88
2022/10/13 01:06:13;;;;;;;11.60;5.72;;;;;;;7.61;100.00;101036.16;6046716;29;20091;-88
2022/10/13 01:09:14;;;;;;;11.25;5.60;;;;;;;7.62;100.00;101041.19;6045711;29;20532;-88
2022/10/13 01:12:42;;;;;;;7.13;5.35;;;;;;;7.63;100.00;101040.28;6045096;29;20433;-88
2022/10/13 01:15:59;;;;;;;9.20;5.43;;;;;;;7.59;100.00;101043.13;6046051;29;20048;-88
2022/10/13 01:19:38;;;;;;;9.13;5.18;;;;;;;7.49;100.00;101035.94;6044587;29;20053;-88
2022/10/13 01:22:56;;;;;;;10.65;5.05;;;;;;;7.44;100.00;101037.13;6045482;29;20056;-88
2022/10/13 01:25:58;;;;;;;10.50;5.25;;;;;;;7.40;100.00;101031.28;6038558;29;20080;-88
2022/10/13 01:29:19;;;;;;;9.98;5.28;;;;;;;7.40;100.00;101025.31;6046007;29;20173;-88
2022/10/13 01:32:28;;;;;;;8.13;5.47;;;;;;;7.41;100.00;101019.28;6044305;29;20049;-88
2022/10/13 01:35:46;;;;;;;9.77;5.50;;;;;;;7.37;100.00;101020.34;6038870;29;20037;-88
2022/10/13 01:39:08;;;;;;;9.27;5.28;;;;;;;7.34;100.00;101021.38;6035056;29;20041;-88
2022/10/13 01:42:21;;;;;;;7.75;5.07;;;;;;;7.33;100.00;101015.38;6040732;29;20509;-88
2022/10/13 01:45:29;;;;;;;11.35;5.57;;;;;;;7.32;100.00;101018.03;6037653;29;20509;-88
2022/10/13 01:48:35;;;;;;;12.55;5.00;;;;;;;7.25;100.00;101019.31;6042945;29;20041;-88
2022/10/13 01:51:38;;;;;;;12.82;5.40;;;;;;;7.13;100.00;101018.28;6044114;29;20500;-88
2022/10/13 01:54:40;;;;;;;11.10;5.32;;;;;;;7.06;100.00;101012.63;6035529;29;20488;-88
2022/10/13 01:57:44;;;;;;;10.23;5.97;;;;;;;7.06;100.00;101006.66;6055303;29;20122;-88
2022/10/13 02:01:23;;;;;;;8.52;5.88;;;;;;;7.09;100.00;101002.16;6041453;29;20045;-88
2022/10/13 02:04:57;;;;;;;9.05;5.22;;;;;;;7.14;100.00;101006.22;6034915;29;20135;-88
2022/10/13 02:08:37;;;;;;;11.57;6.05;;;;;;;7.14;100.00;100998.50;5948509;29;20149;-88
2022/10/13 02:11:47;;;;;;;12.23;6.05;;;;;;;7.16;100.00;101002.66;5950052;29;20666;-88
2022/10/13 02:14:49;;;;;;;12.43;6.00;;;;;;;7.16;100.00;100992.34;5947866;29;20043;-88
2022/10/13 02:17:52;;;;;;;9.13;6.15;;;;;;;7.12;100.00;100986.53;5946722;29;20078;-88
2022/10/13 02:20:54;;;;;;;11.43;6.47;;;;;;;7.10;100.00;100983.25;5950839;29;20430;-88
2022/10/13 02:23:57;;;;;;;10.07;6.13;;;;;;;7.11;100.00;100976.34;5951017;29;20062;-88
2022/10/13 02:26:59;;;;;;;9.57;5.47;;;;;;;7.07;100.00;100980.00;5949890;29;20146;-88
2022/10/13 02:30:01;;;;;;;11.25;6.00;;;;;;;7.02;100.00;100980.25;5947921;29;20058;-88
2022/10/13 02:33:04;;;;;;;13.30;6.10;;;;;;;7.00;100.00;100979.50;5948477;29;20064;-88
2022/10/13 02:36:06;;;;;;;11.25;6.22;;;;;;;6.94;100.00;100982.44;5950198;29;20058;-88
2022/10/13 02:39:09;;;;;;;10.68;6.07;;;;;;;6.89;100.00;100980.13;5950624;29;20899;-88
2022/10/13 02:42:12;;;;;;;13.70;7.03;;;;;;;6.86;100.00;100970.00;5948702;29;20047;-88
2022/10/13 02:45:14;;;;;;;12.45;6.43;;;;;;;6.84;100.00;100974.41;6021332;29;20057;-88
2022/10/13 02:48:16;;;;;;;14.00;6.30;;;;;;;6.82;100.00;100973.66;6049094;29;20057;-88
2022/10/13 02:51:17;;;;;;;10.73;6.25;;;;;;;6.80;100.00;100972.91;6048095;29;20049;-88
2022/10/13 02:54:19;;;;;;;12.82;6.00;;;;;;;6.80;100.00;100974.66;6035073;29;20599;-88
2022/10/13 02:57:21;;;;;;;10.40;6.18;;;;;;;6.81;100.00;100974.59;6035620;29;20045;-88
2022/10/13 03:00:23;;;;;;;11.80;6.82;;;;;;;6.86;100.00;100972.59;6035087;29;20161;-88
2022/10/13 03:03:25;;;;;;;13.18;6.93;;;;;;;6.93;100.00;100972.22;6038843;29;20092;-88
2022/10/13 03:06:27;;;;;;;11.95;7.35;;;;;;;6.97;100.00;100966.81;6043880;29;20377;-88
2022/10/13 03:09:28;;;;;;;12.63;6.60;;;;;;;7.09;100.00;100955.00;6044107;29;20480;-88
2022/10/13 03:12:30;;;;;;;15.40;7.30;;;;;;;7.20;100.00;100960.34;6039822;29;20041;-88
2022/10/13 03:15:32;;;;;;;11.88;6.97;;;;;;;7.27;100.00;100964.22;6029255;29;20144;-88
2022/10/13 03:18:36;;;;;;;13.82;6.88;;;;;;;7.31;100.00;100959.75;6049387;29;20141;-88
2022/10/13 03:21:38;;;;;;;16.90;7.75;;;;;;;7.31;100.00;100960.56;6044887;29;20082;-88
2022/10/13 03:24:40;;;;;;;15.05;7.55;;;;;;;7.29;100.00;100962.41;6041729;29;20413;-88
2022/10/13 03:27:42;;;;;;;14.98;7.53;;;;;;;7.27;100.00;100953.09;6042964;29;20049;-88
2022/10/13 03:30:44;;;;;;;14.35;7.82;;;;;;;7.23;100.00;100957.63;6036283;29;20066;-88
2022/10/13 03:33:46;;;;;;;13.40;7.53;;;;;;;7.22;100.00;100962.84;6046183;29;20044;-88
2022/10/13 03:36:48;;;;;;;16.55;7.68;;;;;;;7.25;100.00;100960.91;6032736;29;20041;-88
2022/10/13 03:39:49;;;;;;;15.98;7.35;;;;;;;7.28;100.00;100965.09;6032140;29;20045;-88
2022/10/13 03:42:51;;;;;;;11.38;7.05;;;;;;;7.27;100.00;100960.84;6043324;29;20037;-88
2022/10/13 03:45:59;;;;;;;10.60;6.70;;;;;;;7.28;100.00;100968.47;6041071;29;20044;-88
2022/10/13 03:49:01;;;;;;;15.50;7.40;;;;;;;7.26;100.00;100964.34;6042120;29;20096;-88
2022/10/13 03:52:04;;;;;;;14.13;7.28;;;;;;;7.23;100.00;100961.91;6041802;29;20037;-88
2022/10/13 03:55:06;;;;;;;13.52;6.95;;;;;;;7.19;100.00;100958.69;6036053;29;20493;-88
2022/10/13 03:58:08;;;;;;;16.13;7.82;;;;;;;7.19;100.00;100960.47;6035662;29;20053;-88
2022/10/13 04:01:11;;;;;;;13.30;7.93;;;;;;;7.21;100.00;100958.63;6043163;29;20045;-88
2022/10/13 04:04:15;;;;;;;13.27;6.95;;;;;;;7.26;100.00;100956.59;6041493;29;20048;-88
2022/10/13 04:07:19;;;;;;;12.15;7.22;;;;;;;7.30;100.00;100969.22;6033907;29;20037;-88
2022/10/13 04:10:21;;;;;;;14.38;7.68;;;;;;;7.35;100.00;100966.34;6042225;29;20449;-88
2022/10/13 04:13:23;;;;;;;12.85;8.15;;;;;;;7.37;100.00;100966.28;6047693;29;20045;-88
2022/10/13 04:16:28;;;;;;;13.20;7.53;;;;;;;7.40;100.00;100958.38;6047090;29;20098;-88
2022/10/13 04:19:30;;;;;;;11.98;7.22;;;;;;;7.40;100.00;100971.25;6044099;29;20522;-88
2022/10/13 04:22:36;;;;;;;10.95;7.50;;;;;;;7.38;100.00;100960.19;6043144;29;20037;-88
2022/10/13 04:25:38;;;;;;;13.50;7.35;;;;;;;7.40;100.00;100961.75;6043713;29;20648;-88
2022/10/13 04:28:41;;;;;;;16.70;7.40;;;;;;;7.39;100.00;100954.16;6046014;29;20049;-88
2022/10/13 04:31:43;;;;;;;16.83;7.72;;;;;;;7.38;100.00;100955.03;6045256;29;20041;-88
2022/10/13 04:34:45;;;;;;;20.25;8.23;;;;;;;7.35;100.00;100950.91;6046944;29;20057;-88
2022/10/13 04:37:46;;;;;;;18.77;7.85;;;;;;;7.32;100.00;100943.38;6044713;29;20408;-88
2022/10/13 04:40:49;;;;;;;15.05;8.27;;;;;;;7.31;100.00;100942.53;6046691;29;20478;-88
2022/10/13 04:43:52;;;;;;;17.38;8.05;;;;;;;7.30;100.00;100940.91;6046057;29;20444;-88
2022/10/13 04:46:54;;;;;;;14.75;7.75;;;;;;;7.31;100.00;100931.41;6046786;29;20040;-88
2022/10/13 04:49:55;;;;;;;15.73;7.55;;;;;;;7.32;100.00;100930.50;6043623;29;20128;-88
2022/10/13 04:52:58;;;;;;;16.48;7.72;;;;;;;7.32;100.00;100920.19;6040589;29;20044;-88
2022/10/13 04:56:02;;;;;;;17.63;7.82;;;;;;;7.32;100.00;100925.34;6038553;29;20529;-88
2022/10/13 04:59:04;;;;;;;12.50;7.72;;;;;;;7.33;100.00;100925.25;6043539;29;20049;-88
2022/10/13 05:02:08;;;;;;;12.90;7.53;;;;;;;7.32;100.00;100926.16;6034339;29;20045;-88
2022/10/13 05:05:09;;;;;;;11.85;8.00;;;;;;;7.32;100.00;100922.75;6039788;29;20081;-88
2022/10/13 05:08:11;;;;;;;17.10;7.82;;;;;;;7.31;100.00;100921.13;6047200;29;20048;-88
2022/10/13 05:11:13;;;;;;;14.68;7.90;;;;;;;7.27;100.00;100925.59;6045872;29;20053;-88
2022/10/13 05:14:15;;;;;;;14.05;7.53;;;;;;;7.26;100.00;100926.53;6044954;29;20072;-88
2022/10/13 05:17:17;;;;;;;13.70;7.07;;;;;;;7.26;100.00;100918.00;6044833;29;20076;-88
2022/10/13 05:20:18;;;;;;;15.68;7.85;;;;;;;7.27;100.00;100914.47;6046805;29;20033;-88
2022/10/13 05:23:20;;;;;;;14.13;7.95;;;;;;;7.26;100.00;100920.56;6043601;29;20075;-88
2022/10/13 05:26:32;;;;;;;18.42;9.57;;;;;;;7.26;100.00;100916.22;6046608;29;20053;-88
2022/10/13 05:29:34;;;;;;;16.58;8.88;;;;;;;7.25;100.00;100914.56;6029534;29;20053;-88
2022/10/13 05:32:36;;;;;;;16.38;9.25;;;;;;;7.24;100.00;100924.97;6038932;29;20045;-88
2022/10/13 05:35:37;;;;;;;15.02;9.43;;;;;;;7.26;100.00;100918.81;6046635;29;20108;-88
2022/10/13 05:38:39;;;;;;;16.48;9.57;;;;;;;7.27;100.00;100917.88;6045761;29;20044;-88
2022/10/13 05:41:41;;;;;;;18.88;9.32;;;;;;;7.28;100.00;100911.00;6045766;29;20620;-89
2022/10/13 05:44:47;;;;;;;15.52;9.60;;;;;;;7.29;100.00;100910.91;6048769;29;20080;-88
2022/10/13 05:47:49;;;;;;;15.57;8.50;;;;;;;7.29;100.00;100907.50;6029202;29;20049;-88
2022/10/13 05:50:51;;;;;;;16.30;8.52;;;;;;;7.30;100.00;100920.31;6044653;29;20052;-88
2022/10/13 05:54:24;;;;;;;14.88;8.50;;;;;;;7.31;100.00;100905.66;6041375;29;20480;-88
2022/10/13 05:57:31;;;;;;;19.65;8.95;;;;;;;7.32;100.00;100897.84;6018408;29;20583;-88
2022/10/13 06:00:34;;;;;;;21.48;9.52;;;;;;;7.34;100.00;100903.72;6018159;29;21001;-88
2022/10/13 06:03:37;;;;;;;17.95;9.27;;;;;;;7.40;100.00;100909.44;6012730;29;20049;-88
2022/10/13 06:06:39;;;;;;;18.45;9.45;;;;;;;7.48;100.00;100914.97;6012389;29;20057;-88
2022/10/13 06:09:41;;;;;;;16.33;8.93;;;;;;;7.54;100.00;100899.97;6018751;29;20057;-88
2022/10/13 06:12:43;;;;;;;16.67;9.35;;;;;;;7.62;100.00;100893.53;6018007;29;20049;-88
2022/10/13 06:15:45;;;;;;;18.80;9.98;;;;;;;7.67;100.00;100884.56;6011983;29;20077;-88
2022/10/13 06:18:46;;;;;;;19.25;9.82;;;;;;;7.80;100.00;100881.25;6018951;29;20045;-88
2022/10/13 06:21:49;;;;;;;17.77;9.43;;;;;;;7.84;100.00;100880.16;6018725;29;20633;-88
2022/10/13 06:24:50;;;;;;;18.48;9.57;;;;;;;7.86;100.00;100884.28;6010985;29;20074;-88
2022/10/13 06:27:52;;;;;;;19.23;9.13;;;;;;;7.90;100.00;100890.06;6017682;29;20053;-88
2022/10/13 06:30:55;;;;;;;18.40;9.88;;;;;;;7.96;100.00;100881.97;6018327;29;20045;-88
2022/10/13 06:33:58;;;;;;;16.40;9.68;;;;;;;7.99;100.00;100882.59;6031002;29;20096;-88
2022/10/13 06:37:00;;;;;;;17.15;9.23;;;;;;;8.05;100.00;100884.00;6035819;29;20314;-89
2022/10/13 06:40:02;;;;;;;18.38;10.93;;;;;;;8.15;100.00;100884.25;6031913;29;20041;-88
2022/10/13 06:43:04;;;;;;;15.90;9.68;;;;;;;8.24;100.00;100888.78;6035199;29;20045;-88
2022/10/13 06:46:13;;;;;;;14.77;9.02;;;;;;;8.35;100.00;100883.78;6036043;29;20053;-89
2022/10/13 06:49:16;;;;;;;16.55;9.82;;;;;;;8.46;100.00;100884.88;6044717;29;20051;-88
2022/10/13 06:52:17;;;;;;;17.35;9.40;;;;;;;8.53;100.00;100884.38;6044514;29;20500;-88
2022/10/13 06:55:19;;;;;;;20.67;10.50;;;;;;;8.63;100.00;100882.03;6044853;29;20061;-88
2022/10/13 06:58:21;;;;;;;15.65;9.63;;;;;;;8.70;100.00;100879.91;6040808;29;20517;-88
2022/10/13 07:01:23;;;;;;;18.48;9.95;;;;;;;8.78;100.00;100883.63;6036625;29;20197;-88
2022/10/13 07:04:26;;;;;;;21.55;10.52;;;;;;;8.86;100.00;100892.63;6043808;29;20484;-89
2022/10/13 07:07:31;;;;;;;15.60;9.70;;;;;;;8.92;100.00;100893.03;6042406;29;20433;-88
2022/10/13 07:10:33;;;;;;;22.33;10.00;;;;;;;9.01;100.00;100894.19;6037539;29;20041;-88
2022/10/13 07:13:35;;;;;;;19.08;9.50;;;;;;;9.08;100.00;100899.75;6036494;29;20045;-88
2022/10/13 07:16:39;;;;;;;17.42;10.10;;;;;;;9.16;100.00;100884.56;6044284;29;20153;-89
2022/10/13 07:19:41;;;;;;;16.27;9.73;;;;;;;9.33;100.00;100883.44;6035982;29;20046;-88
2022/10/13 07:22:44;;;;;;;17.05;9.35;;;;;;;9.49;100.00;100879.72;6042562;29;20048;-88
2022/10/13 07:25:48;;;;;;;17.45;9.77;;;;;;;9.66;100.00;100878.56;6035318;29;20051;-88
2022/10/13 07:28:49;;;;;;;18.77;10.02;;;;;;;9.83;100.00;100887.69;6043454;29;20045;-88
2022/10/13 07:31:52;;;;;;;18.27;9.57;;;;;;;10.01;100.00;100882.16;6035786;29;20041;-89
2022/10/13 07:34:54;;;;;;;14.75;8.73;;;;;;;10.20;100.00;100879.09;6037817;29;20053;-89
2022/10/13 07:37:56;;;;;;;18.10;9.10;;;;;;;10.42;100.00;100878.41;6035396;29;20631;-88
2022/10/13 07:41:05;;;;;;;14.88;8.85;;;;;;;10.60;100.00;100882.22;6045429;29;20052;-88
2022/10/13 07:44:07;;;;;;;17.58;9.82;;;;;;;10.77;100.00;100884.41;6042938;29;20072;-88
2022/10/13 07:47:09;;;;;;;16.17;8.50;;;;;;;10.89;100.00;100880.09;6040883;29;20076;-88
2022/10/13 07:50:11;;;;;;;18.38;9.50;;;;;;;10.96;100.00;100863.16;6047365;29;20121;-88
2022/10/13 07:53:13;;;;;;;15.88;9.50;;;;;;;11.09;100.00;100864.81;6060415;29;20048;-88
2022/10/13 07:56:15;;;;;;;14.80;9.68;;;;;;;11.15;100.00;100877.28;6056307;29;20049;-88
2022/10/13 07:59:17;;;;;;;18.08;8.85;;;;;;;11.17;100.00;100865.88;6045858;29;20127;-88
2022/10/13 08:02:20;;;;;;;14.48;8.63;;;;;;;11.29;100.00;100869.31;6048931;29;20063;-88
2022/10/13 08:05:23;;;;;;;16.98;8.10;;;;;;;11.47;100.00;100861.88;6047988;29;20057;-89
2022/10/13 08:08:24;;;;;;;17.00;8.45;;;;;;;11.55;100.00;100856.09;6050143;29;20049;-88
2022/10/13 08:11:26;;;;;;;20.73;8.25;;;;;;;11.67;100.00;100849.13;6049732;29;20048;-88
2022/10/13 08:14:29;;;;;;;14.85;8.60;;;;;;;11.86;100.00;100841.56;6037414;29;20049;-88
2022/10/13 08:17:31;;;;;;;19.75;7.95;;;;;;;11.99;100.00;100838.84;6047580;29;20519;-88
2022/10/13 08:20:38;;;;;;;14.05;7.00;;;;;;;12.15;100.00;100846.19;6046413;29;20055;-88
2022/10/13 08:23:44;;;;;;;11.38;7.45;;;;;;;12.26;100.00;100849.59;6039196;29;20037;-88
2022/10/13 08:26:46;;;;;;;13.68;7.40;;;;;;;12.42;100.00;100843.16;6039199;29;20053;-88
2022/10/13 08:29:47;;;;;;;16.33;7.50;;;;;;;12.55;100.00;100846.41;6045947;29;20415;-88
2022/10/13 08:32:49;;;;;;;14.63;7.07;;;;;;;12.58;100.00;100842.72;6058027;29;20136;-88
2022/10/13 08:35:52;;;;;;;10.85;7.38;;;;;;;12.59;100.00;100834.78;6043762;29;20041;-88
2022/10/13 08:38:54;;;;;;;12.27;7.28;;;;;;;12.58;100.00;100833.16;6048339;29;20040;-88
2022/10/13 08:41:56;;;;;;;14.40;7.63;;;;;;;12.50;100.00;100853.75;6047936;29;20044;-88
2022/10/13 08:45:04;;;;;;;14.63;7.50;;;;;;;12.41;100.00;100841.50;6041721;29;20044;-88
2022/10/13 08:48:35;;;;;;;12.00;7.25;;;;;;;12.29;100.00;100844.13;6046768;29;20056;-88
2022/10/13 08:51:39;;;;;;;13.45;7.28;;;;;;;12.13;100.00;100846.34;6044782;29;20140;-88
2022/10/13 08:54:41;;;;;;;14.95;6.40;;;;;;;11.90;100.00;100842.16;6029939;29;20057;-88
2022/10/13 08:57:43;;;;;;;14.27;7.30;;;;;;;11.77;100.00;100844.88;6034933;29;20377;-88
2022/10/13 09:00:45;;;;;;;9.55;6.43;;;;;;;11.65;100.00;100841.47;6045149;29;20049;-88
2022/10/13 09:04:17;;;;;;;12.07;7.15;;;;;;;11.59;100.00;100858.34;6045137;29;20080;-88
2022/10/13 09:07:22;;;;;;;11.23;6.55;;;;;;;11.68;100.00;100849.03;6039718;29;20534;-88
2022/10/13 09:10:24;;;;;;;11.65;6.95;;;;;;;11.71;100.00;100848.78;6048076;29;20040;-88
2022/10/13 09:13:26;;;;;;;11.98;6.88;;;;;;;11.81;100.00;100860.06;6044245;29;20050;-88
2022/10/13 09:16:36;;;;;;;14.38;6.93;;;;;;;12.14;100.00;100852.34;6048600;29;20033;-88
2022/10/13 09:19:42;;;;;;;12.32;6.75;;;;;;;12.44;100.00;100859.44;6041395;29;20045;-88
2022/10/13 09:23:01;;;;;;;13.38;7.32;;;;;;;12.61;100.00;100858.88;6045322;29;20424;-88
2022/10/13 09:26:14;;;;;;;13.50;7.32;;;;;;;12.59;100.00;100852.16;6040478;29;20072;-88
2022/10/13 09:29:24;;;;;;;13.00;6.93;;;;;;;12.50;100.00;100848.56;6036938;29;20509;-88
2022/10/13 09:32:26;;;;;;;12.05;6.70;;;;;;;12.44;100.00;100851.63;6048358;29;20133;-88
2022/10/13 09:35:28;;;;;;;10.13;6.55;;;;;;;12.46;100.00;100847.16;6039070;29;20048;-89
2022/10/13 09:38:31;;;;;;;15.40;7.28;;;;;;;12.55;100.00;100843.81;6046560;29;20384;-88
2022/10/13 09:41:34;;;;;;;9.68;5.63;;;;;;;12.64;100.00;100853.41;6035485;29;20049;-88
2022/10/13 09:44:36;;;;;;;14.27;6.72;;;;;;;12.74;100.00;100860.47;6041573;29;20567;-88
2022/10/13 09:47:38;;;;;;;12.13;6.63;;;;;;;12.85;100.00;100861.22;6035311;29;20048;-88
2022/10/13 09:50:48;;;;;;;12.98;6.13;;;;;;;13.05;100.00;100867.34;6046165;29;20073;-88
2022/10/13 09:53:50;;;;;;;11.27;6.13;;;;;;;13.21;100.00;100856.47;6041647;29;20041;-88
2022/10/13 09:57:21;;;;;;;12.52;7.70;;;;;;;13.45;100.00;100858.78;6034772;29;20515;-88
2022/10/13 10:00:26;;;;;;;10.20;6.00;;;;;;;13.54;100.00;100850.22;5995815;29;20069;-88
2022/10/13 10:03:33;;;;;;;12.55;6.75;;;;;;;13.71;100.00;100847.91;5997625;29;20094;-88
2022/10/13 10:06:36;;;;;;;12.40;6.05;;;;;;;13.86;100.00;100843.97;5997219;29;20140;-88
2022/10/13 10:09:45;;;;;;;13.38;6.43;;;;;;;14.02;100.00;100842.63;5997456;29;20777;-88
2022/10/13 10:12:47;;;;;;;11.73;6.22;;;;;;;14.11;100.00;100834.00;5997576;29;20065;-88
2022/10/13 10:16:12;;;;;;;12.35;6.07;;;;;;;14.05;100.00;100818.94;5999043;29;20053;-88
2022/10/13 10:19:38;;;;;;;10.65;5.78;;;;;;;14.00;100.00;100834.94;5981869;29;20107;-89
2022/10/13 10:22:58;;;;;;;9.95;6.35;;;;;;;14.03;100.00;100831.25;5998231;29;20045;-88
2022/10/13 10:26:05;;;;;;;12.02;6.13;;;;;;;14.04;100.00;100832.91;5989308;29;20053;-88
2022/10/13 10:29:36;;;;;;;12.30;6.50;;;;;;;14.03;100.00;100831.25;5997502;29;20050;-88
2022/10/13 10:32:58;;;;;;;9.80;5.97;;;;;;;14.07;100.00;100832.63;5999164;29;20061;-89
2022/10/13 10:36:15;;;;;;;12.27;6.82;;;;;;;14.21;100.00;100837.44;5999237;29;20152;-88
2022/10/13 10:40:15;;;;;;;8.98;5.85;;;;;;;14.46;100.00;100827.41;6044334;29;20057;-89
2022/10/13 10:43:25;;;;;;;12.88;6.15;;;;;;;14.71;100.00;100828.63;5982526;29;20098;-88
2022/10/13 10:46:35;;;;;;;9.18;5.97;;;;;;;15.02;100.00;100827.44;5987696;29;20055;-88
2022/10/13 10:49:38;;;;;;;12.50;6.30;;;;;;;15.26;100.00;100810.47;5981788;29;20062;-88
2022/10/13 10:53:07;;;;;;;13.32;5.60;;;;;;;15.34;100.00;100807.16;5980993;29;20402;-88
2022/10/13 10:56:24;;;;;;;9.55;5.55;;;;;;;15.40;100.00;100801.34;5987181;29;20093;-88
2022/10/13 10:59:55;;;;;;;9.00;5.65;;;;;;;15.40;100.00;100785.69;5997399;29;20402;-88
2022/10/13 11:03:12;;;;;;;9.77;5.47;;;;;;;15.47;100.00;100794.56;5995996;29;20060;-88
2022/10/13 11:06:14;;;;;;;8.95;5.75;;;;;;;15.48;97.12;100789.22;5996006;29;20065;-88
2022/10/13 11:09:51;;;;;;;14.85;6.22;;;;;;;15.43;97.69;100786.22;5981119;29;20046;-88
2022/10/13 11:12:52;;;;;;;9.73;5.10;;;;;;;15.45;98.63;100778.22;6009897;29;20056;-89
2022/10/13 11:15:54;;;;;;;11.90;5.53;;;;;;;15.45;99.76;100779.06;6031738;29;20049;-88
2022/10/13 11:19:04;;;;;;;9.23;5.50;;;;;;;15.34;99.76;100771.44;6030879;29;20062;-88
2022/10/13 11:22:06;;;;;;;14.50;6.25;;;;;;;15.22;98.41;100763.00;6036309;29;20202;-88
2022/10/13 11:25:34;;;;;;;12.63;6.05;;;;;;;15.10;97.95;100764.16;6044759;29;20172;-88
2022/10/13 11:28:45;;;;;;;13.30;5.53;;;;;;;14.98;98.28;100760.09;6045438;29;20053;-88
2022/10/13 11:31:56;;;;;;;8.32;5.63;;;;;;;14.89;99.05;100755.75;6044284;29;20064;-88
2022/10/13 11:35:06;;;;;;;11.98;5.65;;;;;;;14.96;98.62;100762.03;6011909;29;20355;-88
2022/10/13 11:38:30;;;;;;;10.65;5.93;;;;;;;14.90;98.20;100752.16;6043748;29;20056;-88
2022/10/13 11:41:40;;;;;;;10.75;5.82;;;;;;;14.88;99.33;100748.88;6041447;29;20041;-88
2022/10/13 11:45:12;;;;;;;7.97;5.10;;;;;;;14.87;100.00;100748.06;6044093;29;20049;-88
2022/10/13 11:48:17;;;;;;;8.32;5.75;;;;;;;14.99;100.00;100749.53;6044162;29;20052;-89
2022/10/13 11:51:30;;;;;;;9.95;5.63;;;;;;;15.25;100.00;100738.41;6046013;29;20045;-88
2022/10/13 11:54:49;;;;;;;8.75;4.97;;;;;;;15.36;97.74;100733.00;6046218;29;20041;-88
2022/10/13 11:57:50;;;;;;;9.10;5.00;;;;;;;15.20;97.81;100727.59;6046290;29;20098;-88
2022/10/13 12:01:02;;;;;;;8.15;4.78;;;;;;;15.07;99.07;100733.16;6044374;29;20063;-88
2022/10/13 12:04:13;;;;;;;6.25;4.50;;;;;;;14.92;100.00;100730.22;6054499;29;20404;-88
2022/10/13 12:07:17;;;;;;;12.32;5.63;;;;;;;14.88;100.00;100722.81;6043688;29;20084;-88
2022/10/13 12:10:32;;;;;;;9.50;4.25;;;;;;;14.95;100.00;100721.28;6035860;29;20049;-88
2022/10/13 12:13:36;;;;;;;9.77;4.80;;;;;;;15.13;100.00;100718.72;6034679;29;20053;-89
2022/10/13 12:16:50;;;;;;;7.97;4.75;;;;;;;15.39;100.00;100705.78;6036160;29;20527;-88
2022/10/13 12:19:54;;;;;;;6.78;4.07;;;;;;;15.71;100.00;100711.34;6044850;29;20049;-88
2022/10/13 12:22:57;;;;;;;12.23;4.72;;;;;;;16.02;96.85;100708.31;6042444;29;20074;-88
2022/10/13 12:25:59;;;;;;;8.05;4.32;;;;;;;16.40;93.83;100711.53;6040962;29;20125;-89
2022/10/13 12:29:02;;;;;;;8.45;4.30;;;;;;;16.77;92.10;100703.38;6049933;29;20053;-89
2022/10/13 12:32:23;;;;;;;7.10;4.20;;;;;;;17.06;91.43;100711.81;6041042;29;20440;-89
2022/10/13 12:35:26;;;;;;;10.57;5.00;;;;;;;17.18;87.75;100711.38;6045737;29;20041;-89
2022/10/13 12:38:28;;;;;;;5.57;4.00;;;;;;;17.17;86.89;100712.34;6057104;29;20104;-89
2022/10/13 12:41:50;;;;;;;7.10;3.80;;;;;;;17.05;89.77;100711.03;6047650;29;20492;-89
2022/10/13 12:44:53;;;;;;;6.55;4.70;;;;;;;17.12;88.53;100704.19;6047310;29;20549;-89
2022/10/13 12:47:54;;;;;;;7.30;4.20;;;;;;;17.07;88.93;100695.16;6035668;29;20483;-88
2022/10/13 12:51:08;;;;;;;8.23;4.35;;;;;;;16.93;91.34;100694.78;6038754;29;20087;-89
2022/10/13 12:54:27;;;;;;;4.95;3.42;;;;;;;16.79;91.37;100696.22;6029130;29;20083;-89
2022/10/13 12:57:37;;;;;;;7.70;4.10;;;;;;;16.68;92.40;100698.25;6044665;29;20045;-89
2022/10/13 13:00:39;;;;;;;7.97;4.20;;;;;;;16.57;95.52;100688.88;6053610;29;20186;-89
2022/10/13 13:03:43;;;;;;;7.80;4.38;;;;;;;16.51;93.30;100690.34;6031704;29;20535;-89
2022/10/13 13:06:58;;;;;;;8.20;4.20;;;;;;;16.51;96.10;100690.34;6048879;29;20041;-89
2022/10/13 13:10:06;;;;;;;6.15;4.15;;;;;;;16.55;93.49;100689.06;6044923;29;20213;-89
2022/10/13 13:13:14;;;;;;;6.93;4.07;;;;;;;16.58;91.83;100686.13;6047978;29;20521;-89
2022/10/13 13:16:22;;;;;;;9.48;4.13;;;;;;;16.47;92.95;100683.81;6048248;29;20111;-89
2022/10/13 13:19:24;;;;;;;6.90;3.75;;;;;;;16.36;92.41;100686.66;6040258;29;20441;-89
2022/10/13 13:22:26;;;;;;;8.32;3.50;;;;;;;16.29;94.22;100680.41;6046820;29;20049;-89
2022/10/13 13:25:28;;;;;;;6.28;3.58;;;;;;;16.14;94.98;100680.97;6049064;29;20669;-89
2022/10/13 13:28:31;;;;;;;9.05;4.10;;;;;;;16.00;95.04;100684.16;6039344;29;20606;-89
2022/10/13 13:31:36;;;;;;;7.55;4.10;;;;;;;15.90;95.73;100679.03;6034451;29;20096;-88
2022/10/13 13:34:39;;;;;;;6.43;4.10;;;;;;;15.81;97.80;100679.13;6039378;29;20508;-89
2022/10/13 13:37:49;;;;;;;6.55;4.40;;;;;;;15.85;95.88;100678.69;6039496;29;20739;-89
2022/10/13 13:40:51;;;;;;;;;;;;;;;16.11;93.88;100677.88;6045741;29;20041;-89
2022/10/13 13:43:53;;;;;;;6.78;4.05;;;;;;;16.29;94.36;100683.03;6030865;29;19927;-89
2022/10/13 13:46:54;;;;;;;7.43;4.30;;;;;;;16.29;92.80;100678.63;6050497;29;20057;-89
2022/10/13 13:49:56;;;;;;;14.45;4.53;;;;;;;16.19;90.79;100671.88;6042198;29;20049;-89
2022/10/13 13:52:59;;;;;;;6.57;4.13;;;;;;;16.11;92.47;100670.84;6046801;29;20117;-89
2022/10/13 13:56:01;;;;;;;8.23;4.30;;;;;;;16.09;93.86;100671.97;6048289;29;20052;-89
2022/10/13 13:59:03;;;;;;;6.00;4.10;;;;;;;16.08;92.90;100679.00;6037922;29;20041;-89
2022/10/13 14:02:06;;;;;;;7.15;4.75;;;;;;;15.98;93.24;100678.28;6045605;29;20092;-89
2022/10/13 14:05:09;;;;;;;9.80;3.65;;;;;;;15.89;94.22;100676.56;6045914;29;20109;-89
2022/10/13 14:08:11;;;;;;;8.07;3.85;;;;;;;15.87;94.18;100666.25;6037343;29;20355;-89
2022/10/13 14:11:13;;;;;;;8.43;4.30;;;;;;;15.94;94.45;100667.31;6046932;29;20037;-89
2022/10/13 14:14:15;;;;;;;6.85;3.75;;;;;;;16.01;94.33;100666.69;6043824;29;20079;-89
2022/10/13 14:17:17;;;;;;;6.90;3.75;;;;;;;16.12;94.57;100656.00;6042691;29;20114;-89